sensor_id;sensor_type;location;lat;lon;timestamp;temperature;humidity
9820;DHT22;4949;48.482;9.206;2023-05-10T00:02:29;15.20;86.00
9820;DHT22;4949;48.482;9.206;2023-05-10T00:07:30;15.20;86.10
9820;DHT22;4949;48.482;9.206;2023-05-10T00:12:31;15.00;86.60
9820;DHT22;4949;48.482;9.206;2023-05-10T00:17:32;14.90;87.40
9820;DHT22;4949;48.482;9.206;2023-05-10T00:22:33;15.00;87.90
9820;DHT22;4949;48.482;9.206;2023-05-10T00:27:34;14.90;87.50
9820;DHT22;4949;48.482;9.206;2023-05-10T00:32:35;14.80;88.80
9820;DHT22;4949;48.482;9.206;2023-05-10T00:37:40;14.80;88.70
9820;DHT22;4949;48.482;9.206;2023-05-10T00:42:43;14.70;88.70
9820;DHT22;4949;48.482;9.206;2023-05-10T00:47:47;14.80;88.80
9820;DHT22;4949;48.482;9.206;2023-05-10T00:52:47;14.50;90.10
9820;DHT22;4949;48.482;9.206;2023-05-10T00:57:52;14.50;90.10
9820;DHT22;4949;48.482;9.206;2023-05-10T01:02:56;14.40;90.00
9820;DHT22;4949;48.482;9.206;2023-05-10T01:07:56;14.40;90.00
9820;DHT22;4949;48.482;9.206;2023-05-10T01:13:43;14.60;88.80
9820;DHT22;4949;48.482;9.206;2023-05-10T01:19:31;14.40;88.80
9820;DHT22;4949;48.482;9.206;2023-05-10T01:36:11;14.40;89.00
9820;DHT22;4949;48.482;9.206;2023-05-10T01:46:36;14.50;88.90
9820;DHT22;4949;48.482;9.206;2023-05-10T01:51:50;14.40;88.80
9820;DHT22;4949;48.482;9.206;2023-05-10T01:56:55;14.40;88.20
9820;DHT22;4949;48.482;9.206;2023-05-10T02:02:02;14.40;88.00
9820;DHT22;4949;48.482;9.206;2023-05-10T02:07:06;14.50;87.80
9820;DHT22;4949;48.482;9.206;2023-05-10T02:12:13;14.50;88.30
9820;DHT22;4949;48.482;9.206;2023-05-10T02:17:16;14.40;88.00
9820;DHT22;4949;48.482;9.206;2023-05-10T02:22:24;14.40;88.50
9820;DHT22;4949;48.482;9.206;2023-05-10T02:27:28;14.30;88.20
9820;DHT22;4949;48.482;9.206;2023-05-10T02:32:29;14.30;87.80
9820;DHT22;4949;48.482;9.206;2023-05-10T02:37:33;14.30;87.70
9820;DHT22;4949;48.482;9.206;2023-05-10T02:42:38;14.20;87.60
9820;DHT22;4949;48.482;9.206;2023-05-10T02:47:47;14.50;87.80
9820;DHT22;4949;48.482;9.206;2023-05-10T02:52:51;14.20;87.50
9820;DHT22;4949;48.482;9.206;2023-05-10T02:57:57;14.10;87.80
9820;DHT22;4949;48.482;9.206;2023-05-10T03:02:59;14.10;87.50
9820;DHT22;4949;48.482;9.206;2023-05-10T03:08:00;14.10;87.00
9820;DHT22;4949;48.482;9.206;2023-05-10T03:13:39;14.10;86.90
9820;DHT22;4949;48.482;9.206;2023-05-10T03:18:56;14.10;87.30
9820;DHT22;4949;48.482;9.206;2023-05-10T03:24:05;14.00;86.90
9820;DHT22;4949;48.482;9.206;2023-05-10T03:29:11;14.00;87.20
9820;DHT22;4949;48.482;9.206;2023-05-10T03:34:16;14.10;87.90
9820;DHT22;4949;48.482;9.206;2023-05-10T03:39:22;14.00;88.30
9820;DHT22;4949;48.482;9.206;2023-05-10T03:44:23;14.00;88.40
9820;DHT22;4949;48.482;9.206;2023-05-10T03:49:24;14.00;88.50
9820;DHT22;4949;48.482;9.206;2023-05-10T03:54:27;14.00;88.00
9820;DHT22;4949;48.482;9.206;2023-05-10T03:59:28;14.00;87.70
9820;DHT22;4949;48.482;9.206;2023-05-10T04:04:33;14.10;87.90
9820;DHT22;4949;48.482;9.206;2023-05-10T04:09:34;14.00;87.70
9820;DHT22;4949;48.482;9.206;2023-05-10T04:14:35;14.00;88.00
9820;DHT22;4949;48.482;9.206;2023-05-10T04:19:35;14.00;87.90
9820;DHT22;4949;48.482;9.206;2023-05-10T04:24:39;14.00;87.40
9820;DHT22;4949;48.482;9.206;2023-05-10T04:29:42;14.10;85.80
9820;DHT22;4949;48.482;9.206;2023-05-10T04:34:43;14.00;87.00
9820;DHT22;4949;48.482;9.206;2023-05-10T04:39:44;14.00;86.90
9820;DHT22;4949;48.482;9.206;2023-05-10T04:44:45;13.90;86.50
9820;DHT22;4949;48.482;9.206;2023-05-10T04:49:45;13.90;86.90
9820;DHT22;4949;48.482;9.206;2023-05-10T04:54:46;14.00;87.30
9820;DHT22;4949;48.482;9.206;2023-05-10T04:59:54;14.10;86.40
9820;DHT22;4949;48.482;9.206;2023-05-10T05:04:56;14.00;87.10
9820;DHT22;4949;48.482;9.206;2023-05-10T05:09:59;14.00;86.90
9820;DHT22;4949;48.482;9.206;2023-05-10T05:15:01;14.00;86.20
9820;DHT22;4949;48.482;9.206;2023-05-10T05:20:04;13.90;86.60
9820;DHT22;4949;48.482;9.206;2023-05-10T05:25:08;13.90;87.50
9820;DHT22;4949;48.482;9.206;2023-05-10T05:30:09;14.00;87.60
9820;DHT22;4949;48.482;9.206;2023-05-10T05:35:10;14.10;86.40
9820;DHT22;4949;48.482;9.206;2023-05-10T05:40:14;14.00;86.10
9820;DHT22;4949;48.482;9.206;2023-05-10T05:45:15;14.10;86.40
9820;DHT22;4949;48.482;9.206;2023-05-10T05:50:16;13.90;86.70
9820;DHT22;4949;48.482;9.206;2023-05-10T05:55:17;13.80;87.30
9820;DHT22;4949;48.482;9.206;2023-05-10T06:00:21;14.00;88.10
9820;DHT22;4949;48.482;9.206;2023-05-10T06:05:23;14.10;86.80
9820;DHT22;4949;48.482;9.206;2023-05-10T06:10:23;14.40;85.90
9820;DHT22;4949;48.482;9.206;2023-05-10T06:15:27;14.50;84.20
9820;DHT22;4949;48.482;9.206;2023-05-10T06:20:27;14.20;85.60
9820;DHT22;4949;48.482;9.206;2023-05-10T06:25:31;14.20;85.30
9820;DHT22;4949;48.482;9.206;2023-05-10T06:30:32;14.20;86.50
9820;DHT22;4949;48.482;9.206;2023-05-10T06:35:36;14.20;86.00
9820;DHT22;4949;48.482;9.206;2023-05-10T06:40:37;14.10;85.80
9820;DHT22;4949;48.482;9.206;2023-05-10T06:45:43;14.20;85.50
9820;DHT22;4949;48.482;9.206;2023-05-10T06:50:44;14.10;85.40
9820;DHT22;4949;48.482;9.206;2023-05-10T06:55:45;14.10;85.60
9820;DHT22;4949;48.482;9.206;2023-05-10T07:00:45;14.10;85.40
9820;DHT22;4949;48.482;9.206;2023-05-10T07:05:47;14.10;85.40
9820;DHT22;4949;48.482;9.206;2023-05-10T07:10:48;14.10;85.10
9820;DHT22;4949;48.482;9.206;2023-05-10T07:15:48;14.10;84.70
9820;DHT22;4949;48.482;9.206;2023-05-10T07:20:52;14.30;84.50
9820;DHT22;4949;48.482;9.206;2023-05-10T07:25:55;14.20;85.10
9820;DHT22;4949;48.482;9.206;2023-05-10T07:31:00;14.30;84.70
9820;DHT22;4949;48.482;9.206;2023-05-10T07:36:02;14.30;85.60
9820;DHT22;4949;48.482;9.206;2023-05-10T07:41:06;14.30;85.60
9820;DHT22;4949;48.482;9.206;2023-05-10T07:46:06;14.40;84.90
9820;DHT22;4949;48.482;9.206;2023-05-10T07:51:07;14.30;85.00
9820;DHT22;4949;48.482;9.206;2023-05-10T07:56:26;14.30;84.60
9820;DHT22;4949;48.482;9.206;2023-05-10T08:01:31;14.40;85.10
9820;DHT22;4949;48.482;9.206;2023-05-10T08:06:35;14.40;85.00
9820;DHT22;4949;48.482;9.206;2023-05-10T08:11:36;14.70;83.40
9820;DHT22;4949;48.482;9.206;2023-05-10T08:16:36;14.60;83.50
9820;DHT22;4949;48.482;9.206;2023-05-10T08:21:39;14.60;83.00
9820;DHT22;4949;48.482;9.206;2023-05-10T08:26:42;14.70;82.50
9820;DHT22;4949;48.482;9.206;2023-05-10T08:31:43;14.70;82.80
9820;DHT22;4949;48.482;9.206;2023-05-10T08:36:44;14.80;82.20
9820;DHT22;4949;48.482;9.206;2023-05-10T08:41:51;15.00;80.50
9820;DHT22;4949;48.482;9.206;2023-05-10T08:46:53;15.00;79.30
9820;DHT22;4949;48.482;9.206;2023-05-10T08:51:55;15.10;79.70
9820;DHT22;4949;48.482;9.206;2023-05-10T08:56:57;15.20;79.00
9820;DHT22;4949;48.482;9.206;2023-05-10T09:01:58;15.20;78.60
9820;DHT22;4949;48.482;9.206;2023-05-10T09:07:00;15.20;78.10
9820;DHT22;4949;48.482;9.206;2023-05-10T09:12:06;15.30;78.40
9820;DHT22;4949;48.482;9.206;2023-05-10T09:17:11;15.20;77.10
9820;DHT22;4949;48.482;9.206;2023-05-10T09:22:12;15.20;77.00
9820;DHT22;4949;48.482;9.206;2023-05-10T09:27:13;15.30;77.00
9820;DHT22;4949;48.482;9.206;2023-05-10T09:32:14;15.20;76.20
9820;DHT22;4949;48.482;9.206;2023-05-10T09:37:15;15.30;76.20
9820;DHT22;4949;48.482;9.206;2023-05-10T09:42:18;15.40;75.60
9820;DHT22;4949;48.482;9.206;2023-05-10T09:47:19;15.50;76.20
9820;DHT22;4949;48.482;9.206;2023-05-10T09:52:22;15.60;74.20
9820;DHT22;4949;48.482;9.206;2023-05-10T09:57:30;15.60;74.30
9820;DHT22;4949;48.482;9.206;2023-05-10T10:02:31;15.70;74.70
9820;DHT22;4949;48.482;9.206;2023-05-10T10:07:32;15.70;74.20
9820;DHT22;4949;48.482;9.206;2023-05-10T10:12:34;15.70;75.90
9820;DHT22;4949;48.482;9.206;2023-05-10T10:17:38;15.40;77.30
9820;DHT22;4949;48.482;9.206;2023-05-10T10:22:40;15.20;79.60
9820;DHT22;4949;48.482;9.206;2023-05-10T10:43:47;15.20;82.60
9820;DHT22;4949;48.482;9.206;2023-05-10T10:48:51;15.40;82.20
9820;DHT22;4949;48.482;9.206;2023-05-10T10:54:10;15.40;80.60
9820;DHT22;4949;48.482;9.206;2023-05-10T10:59:11;15.60;79.50
9820;DHT22;4949;48.482;9.206;2023-05-10T11:09:12;15.70;78.20
9820;DHT22;4949;48.482;9.206;2023-05-10T11:14:20;15.60;78.70
9820;DHT22;4949;48.482;9.206;2023-05-10T11:19:27;15.80;78.40
9820;DHT22;4949;48.482;9.206;2023-05-10T11:24:28;15.90;77.30
9820;DHT22;4949;48.482;9.206;2023-05-10T11:29:31;16.10;76.30
9820;DHT22;4949;48.482;9.206;2023-05-10T11:34:32;16.10;76.70
9820;DHT22;4949;48.482;9.206;2023-05-10T11:39:36;15.70;71.80
9820;DHT22;4949;48.482;9.206;2023-05-10T11:44:37;15.50;71.70
9820;DHT22;4949;48.482;9.206;2023-05-10T11:49:37;15.30;71.40
9820;DHT22;4949;48.482;9.206;2023-05-10T11:54:45;15.20;70.30
9820;DHT22;4949;48.482;9.206;2023-05-10T11:59:57;15.10;72.20
9820;DHT22;4949;48.482;9.206;2023-05-10T12:04:58;15.10;75.00
9820;DHT22;4949;48.482;9.206;2023-05-10T12:10:11;15.10;77.30
9820;DHT22;4949;48.482;9.206;2023-05-10T12:15:22;15.00;77.20
9820;DHT22;4949;48.482;9.206;2023-05-10T12:20:27;15.00;77.10
9820;DHT22;4949;48.482;9.206;2023-05-10T12:25:35;15.20;76.60
9820;DHT22;4949;48.482;9.206;2023-05-10T12:30:38;15.20;75.40
9820;DHT22;4949;48.482;9.206;2023-05-10T12:35:47;15.20;74.40
9820;DHT22;4949;48.482;9.206;2023-05-10T12:40:49;15.20;69.70
9820;DHT22;4949;48.482;9.206;2023-05-10T12:45:50;15.30;69.90
9820;DHT22;4949;48.482;9.206;2023-05-10T12:50:51;15.30;69.60
9820;DHT22;4949;48.482;9.206;2023-05-10T12:55:56;15.20;69.90
9820;DHT22;4949;48.482;9.206;2023-05-10T13:01:00;15.20;69.50
9820;DHT22;4949;48.482;9.206;2023-05-10T13:06:00;15.20;69.80
9820;DHT22;4949;48.482;9.206;2023-05-10T13:11:05;15.30;68.80
9820;DHT22;4949;48.482;9.206;2023-05-10T13:16:06;15.50;68.90
9820;DHT22;4949;48.482;9.206;2023-05-10T13:21:07;15.50;69.30
9820;DHT22;4949;48.482;9.206;2023-05-10T13:26:07;15.50;69.90
9820;DHT22;4949;48.482;9.206;2023-05-10T13:31:08;15.60;69.70
9820;DHT22;4949;48.482;9.206;2023-05-10T13:36:09;15.60;69.00
9820;DHT22;4949;48.482;9.206;2023-05-10T13:41:10;15.80;69.50
9820;DHT22;4949;48.482;9.206;2023-05-10T13:46:16;16.00;69.60
9820;DHT22;4949;48.482;9.206;2023-05-10T13:51:18;16.10;67.70
9820;DHT22;4949;48.482;9.206;2023-05-10T13:56:21;16.00;67.40
9820;DHT22;4949;48.482;9.206;2023-05-10T14:01:23;16.00;68.60
9820;DHT22;4949;48.482;9.206;2023-05-10T14:06:26;16.20;67.50
9820;DHT22;4949;48.482;9.206;2023-05-10T14:11:27;16.30;67.40
9820;DHT22;4949;48.482;9.206;2023-05-10T14:16:28;16.50;66.60
9820;DHT22;4949;48.482;9.206;2023-05-10T14:21:29;16.60;66.70
9820;DHT22;4949;48.482;9.206;2023-05-10T14:26:34;16.50;65.10
9820;DHT22;4949;48.482;9.206;2023-05-10T14:31:35;16.60;64.60
9820;DHT22;4949;48.482;9.206;2023-05-10T14:36:39;16.60;65.20
9820;DHT22;4949;48.482;9.206;2023-05-10T14:41:40;16.70;65.10
9820;DHT22;4949;48.482;9.206;2023-05-10T14:46:44;16.80;64.70
9820;DHT22;4949;48.482;9.206;2023-05-10T14:51:45;16.90;65.10
9820;DHT22;4949;48.482;9.206;2023-05-10T14:56:46;17.00;65.00
9820;DHT22;4949;48.482;9.206;2023-05-10T15:01:50;17.10;65.60
9820;DHT22;4949;48.482;9.206;2023-05-10T15:06:55;17.20;64.60
9820;DHT22;4949;48.482;9.206;2023-05-10T15:12:02;17.10;64.50
9820;DHT22;4949;48.482;9.206;2023-05-10T15:17:02;17.00;63.60
9820;DHT22;4949;48.482;9.206;2023-05-10T15:22:04;17.00;64.60
9820;DHT22;4949;48.482;9.206;2023-05-10T15:27:07;17.10;64.30
9820;DHT22;4949;48.482;9.206;2023-05-10T15:32:09;17.10;63.70
9820;DHT22;4949;48.482;9.206;2023-05-10T15:37:12;17.10;63.70
9820;DHT22;4949;48.482;9.206;2023-05-10T15:42:13;17.00;63.90
9820;DHT22;4949;48.482;9.206;2023-05-10T15:47:13;16.90;64.60
9820;DHT22;4949;48.482;9.206;2023-05-10T15:52:14;16.90;64.30
9820;DHT22;4949;48.482;9.206;2023-05-10T15:57:18;16.80;64.30
9820;DHT22;4949;48.482;9.206;2023-05-10T16:02:18;16.80;65.00
9820;DHT22;4949;48.482;9.206;2023-05-10T16:07:20;16.80;65.10
9820;DHT22;4949;48.482;9.206;2023-05-10T16:12:21;16.80;65.90
9820;DHT22;4949;48.482;9.206;2023-05-10T16:17:27;16.80;66.30
9820;DHT22;4949;48.482;9.206;2023-05-10T16:22:30;16.70;67.90
9820;DHT22;4949;48.482;9.206;2023-05-10T16:27:30;16.60;68.70
9820;DHT22;4949;48.482;9.206;2023-05-10T16:32:35;16.50;67.90
9820;DHT22;4949;48.482;9.206;2023-05-10T16:37:35;16.40;69.20
9820;DHT22;4949;48.482;9.206;2023-05-10T16:42:36;16.40;68.90
9820;DHT22;4949;48.482;9.206;2023-05-10T16:47:40;16.40;67.80
9820;DHT22;4949;48.482;9.206;2023-05-10T16:52:42;16.20;66.70
9820;DHT22;4949;48.482;9.206;2023-05-10T16:57:43;16.30;66.00
9820;DHT22;4949;48.482;9.206;2023-05-10T17:02:44;16.20;66.30
9820;DHT22;4949;48.482;9.206;2023-05-10T17:07:45;16.20;67.00
9820;DHT22;4949;48.482;9.206;2023-05-10T17:12:46;16.20;66.30
9820;DHT22;4949;48.482;9.206;2023-05-10T17:17:49;16.20;66.90
9820;DHT22;4949;48.482;9.206;2023-05-10T17:22:49;16.10;67.20
9820;DHT22;4949;48.482;9.206;2023-05-10T17:27:55;16.00;67.80
9820;DHT22;4949;48.482;9.206;2023-05-10T17:32:55;16.00;68.60
9820;DHT22;4949;48.482;9.206;2023-05-10T17:37:56;15.90;67.60
9820;DHT22;4949;48.482;9.206;2023-05-10T17:42:57;16.00;68.10
9820;DHT22;4949;48.482;9.206;2023-05-10T17:48:00;16.00;67.40
9820;DHT22;4949;48.482;9.206;2023-05-10T17:53:01;15.80;67.80
9820;DHT22;4949;48.482;9.206;2023-05-10T17:58:02;15.70;68.20
9820;DHT22;4949;48.482;9.206;2023-05-10T18:03:04;15.60;67.40
9820;DHT22;4949;48.482;9.206;2023-05-10T18:08:05;15.60;66.40
9820;DHT22;4949;48.482;9.206;2023-05-10T18:13:06;15.50;66.90
9820;DHT22;4949;48.482;9.206;2023-05-10T18:18:10;15.40;67.50
9820;DHT22;4949;48.482;9.206;2023-05-10T18:23:13;15.50;67.50
9820;DHT22;4949;48.482;9.206;2023-05-10T18:28:16;15.40;67.50
9820;DHT22;4949;48.482;9.206;2023-05-10T18:33:17;15.40;68.00
9820;DHT22;4949;48.482;9.206;2023-05-10T18:38:20;15.30;68.40
9820;DHT22;4949;48.482;9.206;2023-05-10T18:43:21;15.20;69.00
9820;DHT22;4949;48.482;9.206;2023-05-10T18:48:22;15.20;69.10
9820;DHT22;4949;48.482;9.206;2023-05-10T18:53:25;15.10;69.80
9820;DHT22;4949;48.482;9.206;2023-05-10T18:58:27;15.10;70.10
9820;DHT22;4949;48.482;9.206;2023-05-10T19:03:28;15.30;70.60
9820;DHT22;4949;48.482;9.206;2023-05-10T19:08:31;15.10;70.40
9820;DHT22;4949;48.482;9.206;2023-05-10T19:13:34;15.00;70.70
9820;DHT22;4949;48.482;9.206;2023-05-10T19:18:35;15.00;70.20
9820;DHT22;4949;48.482;9.206;2023-05-10T19:23:39;14.80;71.60
9820;DHT22;4949;48.482;9.206;2023-05-10T19:28:41;14.70;72.30
9820;DHT22;4949;48.482;9.206;2023-05-10T19:33:41;14.60;72.90
9820;DHT22;4949;48.482;9.206;2023-05-10T19:38:45;14.90;78.50
9820;DHT22;4949;48.482;9.206;2023-05-10T19:43:46;15.30;74.60
9820;DHT22;4949;48.482;9.206;2023-05-10T19:48:48;15.20;71.60
9820;DHT22;4949;48.482;9.206;2023-05-10T19:53:51;14.90;72.40
9820;DHT22;4949;48.482;9.206;2023-05-10T19:58:52;14.70;72.70
9820;DHT22;4949;48.482;9.206;2023-05-10T20:03:53;14.60;72.90
9820;DHT22;4949;48.482;9.206;2023-05-10T20:08:54;14.50;73.00
9820;DHT22;4949;48.482;9.206;2023-05-10T20:13:55;14.40;74.00
9820;DHT22;4949;48.482;9.206;2023-05-10T20:18:56;14.20;74.30
9820;DHT22;4949;48.482;9.206;2023-05-10T20:23:57;14.20;75.10
9820;DHT22;4949;48.482;9.206;2023-05-10T20:28:58;14.10;75.00
9820;DHT22;4949;48.482;9.206;2023-05-10T20:33:58;14.10;74.60
9820;DHT22;4949;48.482;9.206;2023-05-10T20:39:04;14.10;74.40
9820;DHT22;4949;48.482;9.206;2023-05-10T20:44:05;14.10;73.60
9820;DHT22;4949;48.482;9.206;2023-05-10T20:49:07;14.00;73.80
9820;DHT22;4949;48.482;9.206;2023-05-10T20:54:10;14.00;73.10
9820;DHT22;4949;48.482;9.206;2023-05-10T20:59:11;14.00;72.40
9820;DHT22;4949;48.482;9.206;2023-05-10T21:04:12;14.00;72.50
9820;DHT22;4949;48.482;9.206;2023-05-10T21:09:13;14.00;72.10
9820;DHT22;4949;48.482;9.206;2023-05-10T21:14:16;13.90;71.70
9820;DHT22;4949;48.482;9.206;2023-05-10T21:19:20;13.90;70.80
9820;DHT22;4949;48.482;9.206;2023-05-10T21:24:20;14.00;70.10
9820;DHT22;4949;48.482;9.206;2023-05-10T21:29:21;13.90;70.80
9820;DHT22;4949;48.482;9.206;2023-05-10T21:34:22;13.90;71.30
9820;DHT22;4949;48.482;9.206;2023-05-10T21:39:23;13.80;72.20
9820;DHT22;4949;48.482;9.206;2023-05-10T21:44:23;13.80;72.90
9820;DHT22;4949;48.482;9.206;2023-05-10T21:49:25;13.80;73.30
9820;DHT22;4949;48.482;9.206;2023-05-10T21:54:26;13.80;72.40
9820;DHT22;4949;48.482;9.206;2023-05-10T21:59:29;13.70;72.00
9820;DHT22;4949;48.482;9.206;2023-05-10T22:04:30;13.70;72.60
9820;DHT22;4949;48.482;9.206;2023-05-10T22:09:31;13.70;71.90
9820;DHT22;4949;48.482;9.206;2023-05-10T22:14:32;13.60;71.40
9820;DHT22;4949;48.482;9.206;2023-05-10T22:19:32;13.60;71.60
9820;DHT22;4949;48.482;9.206;2023-05-10T22:24:36;13.50;71.20
9820;DHT22;4949;48.482;9.206;2023-05-10T22:29:36;13.50;71.40
9820;DHT22;4949;48.482;9.206;2023-05-10T22:34:37;13.50;71.50
9820;DHT22;4949;48.482;9.206;2023-05-10T22:39:38;13.50;72.00
9820;DHT22;4949;48.482;9.206;2023-05-10T22:44:39;13.40;72.90
9820;DHT22;4949;48.482;9.206;2023-05-10T22:49:39;13.40;73.10
9820;DHT22;4949;48.482;9.206;2023-05-10T22:54:40;13.30;73.20
9820;DHT22;4949;48.482;9.206;2023-05-10T22:59:41;13.30;73.30
9820;DHT22;4949;48.482;9.206;2023-05-10T23:04:42;13.30;73.40
9820;DHT22;4949;48.482;9.206;2023-05-10T23:09:45;13.30;73.70
9820;DHT22;4949;48.482;9.206;2023-05-10T23:14:48;13.20;73.60
9820;DHT22;4949;48.482;9.206;2023-05-10T23:19:50;13.20;74.10
9820;DHT22;4949;48.482;9.206;2023-05-10T23:24:55;13.20;74.20
9820;DHT22;4949;48.482;9.206;2023-05-10T23:29:56;13.10;74.60
9820;DHT22;4949;48.482;9.206;2023-05-10T23:34:59;13.20;74.30
9820;DHT22;4949;48.482;9.206;2023-05-10T23:40:00;13.00;74.60
9820;DHT22;4949;48.482;9.206;2023-05-10T23:45:01;13.10;74.80
9820;DHT22;4949;48.482;9.206;2023-05-10T23:50:05;13.10;75.20
9820;DHT22;4949;48.482;9.206;2023-05-10T23:55:06;13.10;75.00
